Time;durP1;ratioP1;P1;durP2;ratioP2;P2;SDS_P1;SDS_P2;PMS_P1;PMS_P2;Temp;Humidity;BMP_temperature;BMP_pressure;BME280_temperature;BME280_humidity;BME280_pressure;Samples;Min_cycle;Max_cycle;Signal;HPM_P1;HPM_P2
2022/07/25 00:00:22;;;;;;;8.50;3.72;;;;;;;31.73;36.86;98674.47;6185199;23;20225;-90
2022/07/25 00:02:48;;;;;;;7.40;4.07;;;;;;;31.72;37.06;98672.78;6159451;23;20697;-89
2022/07/25 00:05:13;;;;;;;11.95;4.47;;;;;;;31.63;37.39;98677.69;6185159;23;20202;-89
2022/07/25 00:07:39;;;;;;;5.63;3.60;;;;;;;31.64;37.32;98673.94;6184965;23;20249;-88
2022/07/25 00:10:05;;;;;;;8.20;4.13;;;;;;;31.58;37.27;98669.41;6185443;23;20147;-89
2022/07/25 00:12:31;;;;;;;7.75;4.22;;;;;;;31.57;37.53;98670.47;6183940;23;20540;-89
2022/07/25 00:14:56;;;;;;;7.28;3.80;;;;;;;31.57;38.13;98667.78;6184872;23;20217;-90
2022/07/25 00:17:22;;;;;;;6.68;3.65;;;;;;;31.53;38.34;98677.38;6185592;23;20162;-90
2022/07/25 00:19:47;;;;;;;7.55;4.25;;;;;;;31.55;38.54;98688.84;6185466;23;20278;-89
2022/07/25 00:22:13;;;;;;;8.15;3.88;;;;;;;31.49;38.53;98681.63;6184492;23;20613;-89
2022/07/25 00:24:38;;;;;;;8.55;3.90;;;;;;;31.45;38.82;98681.22;6185003;23;20500;-89
2022/07/25 00:27:04;;;;;;;5.65;3.20;;;;;;;31.40;39.01;98678.34;6185146;23;20208;-88
2022/07/25 00:29:29;;;;;;;5.85;3.53;;;;;;;31.35;38.30;98689.03;6184847;23;20155;-88
2022/07/25 00:31:55;;;;;;;8.30;4.15;;;;;;;31.38;38.23;98690.44;6185052;23;20161;-89
2022/07/25 00:34:20;;;;;;;9.95;4.47;;;;;;;31.34;38.44;98700.88;6183778;23;20239;-89
2022/07/25 00:36:46;;;;;;;8.52;3.83;;;;;;;31.33;38.29;98695.72;6185160;23;20158;-89
2022/07/25 00:39:11;;;;;;;6.45;3.78;;;;;;;31.32;38.52;98694.03;6185150;23;20147;-89
2022/07/25 00:41:37;;;;;;;6.47;4.25;;;;;;;31.32;38.32;98696.75;6184863;23;20553;-89
2022/07/25 00:44:02;;;;;;;9.85;4.70;;;;;;;31.33;37.95;98701.13;6185364;23;20664;-89
2022/07/25 00:46:28;;;;;;;8.52;3.97;;;;;;;31.32;37.86;98694.03;6159016;23;20154;-90
2022/07/25 00:48:56;;;;;;;5.60;3.55;;;;;;;31.20;37.79;98712.94;6186675;23;20155;-90
2022/07/25 00:51:21;;;;;;;7.45;4.50;;;;;;;31.21;37.57;98713.75;6186689;23;20175;-89
2022/07/25 00:53:47;;;;;;;6.55;4.20;;;;;;;31.17;37.34;98715.25;6160851;23;20178;-89
2022/07/25 00:56:15;;;;;;;10.85;4.80;;;;;;;31.11;36.81;98716.13;6160794;23;20682;-90
2022/07/25 00:58:44;;;;;;;8.80;4.28;;;;;;;31.05;37.45;98727.84;6160999;23;20173;-90
2022/07/25 01:01:09;;;;;;;7.85;3.78;;;;;;;30.87;38.01;98731.31;6186822;23;20150;-88
2022/07/25 01:03:35;;;;;;;9.20;3.97;;;;;;;30.78;38.16;98732.59;6186755;23;20234;-91
2022/07/25 01:06:03;;;;;;;7.50;3.72;;;;;;;30.83;38.86;98730.91;6185669;23;20197;-91
2022/07/25 01:08:29;;;;;;;7.68;3.95;;;;;;;30.68;39.49;98734.97;6187384;23;20146;-90
2022/07/25 01:10:55;;;;;;;6.15;4.07;;;;;;;30.38;40.32;98735.56;6186016;23;20505;-91
2022/07/25 01:13:20;;;;;;;11.32;4.60;;;;;;;30.08;40.69;98739.03;6186905;23;20146;-92
2022/07/25 01:15:46;;;;;;;11.68;4.75;;;;;;;30.30;40.87;98740.34;6187319;23;20158;-93
2022/07/25 01:18:11;;;;;;;7.18;4.85;;;;;;;30.01;41.15;98740.91;6187046;23;20213;-91
2022/07/25 01:20:37;;;;;;;9.25;3.95;;;;;;;30.09;41.07;98755.03;6186003;23;20177;-91
2022/07/25 01:23:02;;;;;;;7.10;4.35;;;;;;;30.26;40.94;98752.66;6160856;23;20288;-90
2022/07/25 01:25:28;;;;;;;6.30;4.38;;;;;;;30.10;41.45;98758.56;6186760;23;20150;-89
2022/07/25 01:27:54;;;;;;;7.45;4.15;;;;;;;29.97;42.10;98755.91;6187528;23;20178;-92
2022/07/25 01:30:21;;;;;;;7.90;4.45;;;;;;;29.64;42.93;98751.38;6186918;23;20541;-88
2022/07/25 01:32:47;;;;;;;9.43;4.50;;;;;;;29.49;43.25;98758.06;6186121;23;20532;-91
2022/07/25 01:35:13;;;;;;;10.05;4.28;;;;;;;29.43;43.49;98738.13;6186690;23;20147;-89
2022/07/25 01:37:40;;;;;;;11.70;4.55;;;;;;;29.47;43.60;98738.53;6160785;23;20155;-88
2022/07/25 01:40:11;;;;;;;6.05;4.35;;;;;;;29.63;43.06;98741.63;6185655;23;20150;-92
2022/07/25 01:42:43;;;;;;;7.45;4.22;;;;;;;29.72;43.10;98745.75;6185708;23;20150;-90
2022/07/25 01:45:11;;;;;;;6.18;3.47;;;;;;;29.49;43.50;98741.84;6160359;23;20622;-92
2022/07/25 01:47:36;;;;;;;6.80;4.45;;;;;;;29.66;42.87;98741.22;6160699;23;20284;-89
2022/07/25 01:50:03;;;;;;;6.63;4.22;;;;;;;29.77;42.57;98742.41;6186543;23;20229;-89
2022/07/25 01:52:28;;;;;;;6.97;4.10;;;;;;;29.87;42.29;98742.00;6185301;23;20156;-89
2022/07/25 01:54:57;;;;;;;10.30;4.30;;;;;;;29.98;41.89;98733.25;6185144;23;20166;-93
2022/07/25 01:57:22;;;;;;;7.57;4.65;;;;;;;29.99;41.91;98726.78;6185287;23;20158;-88
2022/07/25 01:59:57;;;;;;;6.95;4.55;;;;;;;30.04;42.37;98724.25;6186532;23;20161;-91
2022/07/25 02:02:23;;;;;;;8.75;4.13;;;;;;;30.01;42.18;98713.88;6186329;23;20174;-89
2022/07/25 02:04:48;;;;;;;8.52;5.28;;;;;;;30.01;42.48;98705.75;6160052;23;20178;-89
2022/07/25 02:07:23;;;;;;;9.90;4.63;;;;;;;30.03;42.24;98707.22;6186080;23;20166;-90
2022/07/25 02:09:48;;;;;;;13.95;4.55;;;;;;;29.96;42.86;98702.88;6186399;23;20153;-89
2022/07/25 02:12:14;;;;;;;5.95;4.05;;;;;;;29.94;42.70;98700.41;6186359;23;20577;-89
2022/07/25 02:14:39;;;;;;;10.35;4.68;;;;;;;29.96;42.84;98690.19;6185871;23;20150;-88
2022/07/25 02:17:05;;;;;;;10.32;5.05;;;;;;;29.90;43.31;98696.44;6185969;23;20485;-89
2022/07/25 02:19:31;;;;;;;9.93;5.65;;;;;;;29.81;43.66;98700.47;6184660;23;20157;-88
2022/07/25 02:21:56;;;;;;;11.20;4.15;;;;;;;29.83;44.36;98696.50;6186247;23;20154;-88
2022/07/25 02:24:22;;;;;;;8.15;4.97;;;;;;;29.80;43.80;98696.91;6185710;23;20174;-88
2022/07/25 02:26:47;;;;;;;11.90;4.80;;;;;;;29.72;43.74;98694.41;6185935;23;20149;-90
2022/07/25 02:29:13;;;;;;;6.75;4.38;;;;;;;29.73;43.56;98687.97;6185379;23;20163;-89
2022/07/25 02:31:38;;;;;;;8.82;5.00;;;;;;;29.73;43.22;98684.44;6185615;23;20185;-88
2022/07/25 02:34:04;;;;;;;7.15;4.65;;;;;;;29.72;43.25;98683.63;6159895;23;20151;-88
2022/07/25 02:36:29;;;;;;;7.28;4.60;;;;;;;29.74;43.12;98691.53;6184570;23;20155;-89
2022/07/25 02:38:55;;;;;;;8.98;4.60;;;;;;;29.69;42.80;98694.03;6185744;23;20147;-88
2022/07/25 02:41:20;;;;;;;7.97;4.65;;;;;;;29.67;43.20;98696.94;6185640;23;20150;-89
2022/07/25 02:43:46;;;;;;;8.35;4.45;;;;;;;29.65;43.23;98704.44;6185680;23;20177;-89
2022/07/25 02:46:11;;;;;;;8.25;4.78;;;;;;;29.66;43.52;98702.56;6185607;23;20150;-89
2022/07/25 02:48:37;;;;;;;6.70;4.53;;;;;;;29.64;43.35;98699.22;6185785;23;20156;-88
2022/07/25 02:51:02;;;;;;;6.85;3.95;;;;;;;29.62;42.94;98696.75;6159528;23;20155;-90
2022/07/25 02:53:28;;;;;;;7.45;4.20;;;;;;;29.61;42.92;98697.78;6184453;23;20150;-89
2022/07/25 02:55:53;;;;;;;7.38;4.15;;;;;;;29.65;43.03;98698.19;6185850;23;20662;-89
2022/07/25 02:58:19;;;;;;;6.43;4.13;;;;;;;29.66;42.92;98699.88;6184720;23;20281;-89
2022/07/25 03:00:44;;;;;;;5.90;4.20;;;;;;;29.66;42.83;98703.41;6159612;23;20193;-89
2022/07/25 03:03:10;;;;;;;5.90;3.83;;;;;;;29.74;42.84;98702.31;6159668;23;20154;-90
2022/07/25 03:05:35;;;;;;;9.90;4.60;;;;;;;29.76;42.61;98698.38;6185805;23;20150;-89
2022/07/25 03:08:01;;;;;;;7.57;4.32;;;;;;;29.76;42.81;98701.06;6159598;23;20166;-89
2022/07/25 03:10:26;;;;;;;11.43;4.07;;;;;;;29.82;42.35;98712.94;6185297;23;20213;-90
2022/07/25 03:12:54;;;;;;;6.82;4.43;;;;;;;29.85;42.30;98707.06;6184185;23;20157;-89
2022/07/25 03:15:20;;;;;;;5.50;4.25;;;;;;;29.91;41.83;98718.91;6159805;23;20154;-89
2022/07/25 03:17:45;;;;;;;6.18;3.70;;;;;;;29.94;41.85;98716.63;6185686;23;20582;-90
2022/07/25 03:20:11;;;;;;;6.45;4.22;;;;;;;29.97;41.85;98723.47;6186165;23;20186;-89
2022/07/25 03:22:38;;;;;;;7.30;4.53;;;;;;;29.97;42.38;98723.47;6185924;23;20174;-88
2022/07/25 03:25:04;;;;;;;11.27;4.70;;;;;;;30.01;42.04;98732.78;6159275;23;20261;-90
2022/07/25 03:27:29;;;;;;;7.93;4.60;;;;;;;30.02;42.39;98737.16;6159398;23;20150;-89
2022/07/25 03:29:55;;;;;;;7.35;4.78;;;;;;;30.00;42.90;98739.25;6184213;23;20188;-90
2022/07/25 03:32:22;;;;;;;9.60;4.65;;;;;;;29.96;43.41;98744.25;6185474;23;20177;-90
2022/07/25 03:34:47;;;;;;;7.10;4.22;;;;;;;29.90;43.01;98749.69;6185235;23;20142;-90
2022/07/25 03:37:13;;;;;;;6.63;4.10;;;;;;;29.85;43.10;98757.63;6185569;23;20154;-90
2022/07/25 03:39:38;;;;;;;5.70;3.88;;;;;;;29.82;43.57;98767.78;6185711;23;20229;-89
2022/07/25 03:42:04;;;;;;;8.35;4.38;;;;;;;29.61;43.96;98773.41;6159717;23;20193;-90
2022/07/25 03:44:31;;;;;;;6.22;3.92;;;;;;;29.49;44.08;98776.97;6184411;23;20269;-90
2022/07/25 03:46:57;;;;;;;8.20;4.70;;;;;;;29.35;44.78;98786.16;6185615;23;20150;-90
2022/07/25 03:49:22;;;;;;;7.05;4.70;;;;;;;29.52;44.41;98781.97;6185249;23;20237;-91
2022/07/25 03:51:48;;;;;;;11.27;4.78;;;;;;;29.59;44.55;98775.50;6184395;23;20577;-90
2022/07/25 03:54:14;;;;;;;8.70;5.20;;;;;;;29.63;44.47;98779.47;6185576;23;20161;-90
2022/07/25 03:56:42;;;;;;;9.18;4.43;;;;;;;29.45;45.44;98787.38;6184145;23;20158;-90
2022/07/25 03:59:10;;;;;;;8.70;4.82;;;;;;;29.47;46.28;98792.56;6185553;23;20593;-90
2022/07/25 04:01:36;;;;;;;12.90;4.75;;;;;;;29.55;46.70;98790.47;6159340;23;20496;-91
2022/07/25 04:04:02;;;;;;;7.75;4.72;;;;;;;29.43;46.90;98783.22;6185886;23;20178;-90
2022/07/25 04:06:28;;;;;;;8.35;4.82;;;;;;;29.37;47.28;98776.78;6185189;23;20629;-90
2022/07/25 04:08:54;;;;;;;7.32;4.32;;;;;;;29.37;47.51;98776.78;6185297;23;20146;-90
2022/07/25 04:11:20;;;;;;;9.18;4.97;;;;;;;29.33;47.54;98772.84;6184589;23;20154;-90
2022/07/25 04:13:45;;;;;;;10.98;5.00;;;;;;;29.30;47.78;98777.84;6184839;23;20151;-91
2022/07/25 04:16:11;;;;;;;7.22;4.88;;;;;;;29.53;47.52;98773.66;6183990;23;20641;-90
2022/07/25 04:18:37;;;;;;;6.55;4.13;;;;;;;29.64;46.90;98778.41;6184177;23;20158;-90
2022/07/25 04:21:04;;;;;;;9.82;5.25;;;;;;;29.73;46.44;98776.31;6184530;23;20162;-90
2022/07/25 04:23:30;;;;;;;11.10;4.97;;;;;;;29.83;46.78;98788.38;6186694;23;20171;-90
2022/07/25 04:25:56;;;;;;;9.45;5.20;;;;;;;29.83;47.30;98785.66;6187347;23;20450;-90
2022/07/25 04:28:23;;;;;;;8.88;4.60;;;;;;;29.78;47.94;98784.63;6187440;23;20237;-90
2022/07/25 04:30:49;;;;;;;8.68;5.13;;;;;;;29.75;48.18;98788.56;6187447;23;20147;-90
2022/07/25 04:33:15;;;;;;;11.10;5.10;;;;;;;29.74;48.26;98781.50;6161210;23;20225;-91
2022/07/25 04:35:41;;;;;;;10.32;5.30;;;;;;;29.79;48.09;98775.50;6186123;23;20177;-89
2022/07/25 04:38:07;;;;;;;14.65;5.13;;;;;;;29.87;48.16;98777.97;6186529;23;20237;-91
2022/07/25 04:40:32;;;;;;;6.35;4.32;;;;;;;29.93;48.19;98773.59;6187101;23;20146;-90
2022/07/25 04:42:58;;;;;;;7.47;4.75;;;;;;;30.04;47.74;98778.31;6187124;23;20586;-91
2022/07/25 04:45:24;;;;;;;9.43;5.38;;;;;;;30.07;48.41;98767.09;6185760;23;20189;-90
2022/07/25 04:47:49;;;;;;;7.25;4.60;;;;;;;30.11;47.96;98773.75;6186295;23;20240;-90
2022/07/25 04:50:15;;;;;;;10.45;4.82;;;;;;;30.21;47.38;98768.72;6186292;23;20154;-90
2022/07/25 04:52:41;;;;;;;11.65;5.90;;;;;;;30.25;46.85;98778.03;6186460;23;20162;-90
2022/07/25 04:55:07;;;;;;;7.57;4.80;;;;;;;30.13;47.16;98772.47;6187313;23;20221;-91
2022/07/25 04:57:32;;;;;;;10.55;4.60;;;;;;;30.04;47.36;98775.63;6186957;23;20217;-91
2022/07/25 04:59:58;;;;;;;7.22;4.95;;;;;;;29.95;47.38;98774.22;6185831;23;20181;-90
2022/07/25 05:02:24;;;;;;;9.35;5.20;;;;;;;30.01;47.90;98773.34;6186958;23;20147;-90
2022/07/25 05:04:50;;;;;;;11.73;4.45;;;;;;;30.09;47.60;98767.69;6185530;23;20179;-90
2022/07/25 05:07:16;;;;;;;11.80;5.40;;;;;;;30.20;47.19;98769.75;6185647;23;20508;-90
2022/07/25 05:09:46;;;;;;;8.32;5.35;;;;;;;30.25;47.31;98764.50;6187098;23;20151;-90
2022/07/25 05:12:11;;;;;;;7.05;4.68;;;;;;;30.30;46.96;98773.66;6187384;23;20155;-91
2022/07/25 05:14:37;;;;;;;12.45;6.03;;;;;;;30.40;46.80;98773.19;6185731;23;20555;-90
2022/07/25 05:17:03;;;;;;;9.38;4.93;;;;;;;30.58;46.10;98776.03;6160772;23;20582;-90
2022/07/25 05:19:29;;;;;;;8.07;5.20;;;;;;;30.62;46.10;98776.41;6160744;23;20154;-90
2022/07/25 05:21:54;;;;;;;7.78;4.75;;;;;;;30.65;46.13;98782.25;6161009;23;20181;-90
2022/07/25 05:24:21;;;;;;;10.15;5.22;;;;;;;30.66;46.33;98775.75;6185906;23;20218;-90
2022/07/25 05:26:47;;;;;;;7.90;5.40;;;;;;;30.74;45.65;98772.00;6185686;23;20162;-90
2022/07/25 05:29:13;;;;;;;8.85;5.25;;;;;;;30.77;45.34;98774.22;6161079;23;20151;-91
2022/07/25 05:31:38;;;;;;;9.75;5.28;;;;;;;30.75;43.94;98765.50;6160678;23;20169;-91
2022/07/25 05:34:04;;;;;;;10.48;5.38;;;;;;;30.73;44.50;98775.72;6160930;23;20150;-90
2022/07/25 05:36:30;;;;;;;8.18;5.25;;;;;;;30.71;44.30;98758.91;6185326;23;20182;-91
2022/07/25 05:38:55;;;;;;;11.45;5.60;;;;;;;30.81;44.70;98760.06;6160772;23;20154;-90
2022/07/25 05:41:21;;;;;;;11.55;5.47;;;;;;;30.91;44.37;98762.31;6186766;23;20205;-92
2022/07/25 05:43:47;;;;;;;9.85;5.10;;;;;;;30.95;44.99;98763.53;6186839;23;20246;-91
2022/07/25 05:46:18;;;;;;;11.90;4.85;;;;;;;30.96;45.25;98757.91;6185939;23;20155;-90
2022/07/25 05:48:44;;;;;;;8.38;5.28;;;;;;;30.93;45.18;98757.50;6186783;23;20195;-91
2022/07/25 05:51:14;;;;;;;7.60;4.93;;;;;;;30.95;45.05;98758.09;6160996;23;20581;-92
2022/07/25 05:53:40;;;;;;;12.20;5.78;;;;;;;30.87;44.74;98750.25;6186216;23;20151;-91
2022/07/25 05:56:08;;;;;;;8.93;4.70;;;;;;;30.90;44.26;98749.78;6185563;23;20225;-90
2022/07/25 05:58:36;;;;;;;6.75;4.70;;;;;;;31.05;43.62;98753.06;6185714;23;20150;-90
2022/07/25 06:01:01;;;;;;;7.65;4.10;;;;;;;31.08;43.38;98749.06;6186828;23;20154;-92
2022/07/25 06:03:27;;;;;;;11.65;3.92;;;;;;;31.05;43.45;98749.50;6185783;23;20230;-90
2022/07/25 06:05:54;;;;;;;5.60;3.70;;;;;;;31.27;42.64;98754.31;6186338;23;20589;-90
2022/07/25 06:08:19;;;;;;;8.38;4.28;;;;;;;31.41;42.33;98744.19;6185824;23;20154;-92
2022/07/25 06:10:45;;;;;;;7.18;3.88;;;;;;;31.51;42.16;98745.38;6185375;23;20151;-90
2022/07/25 06:13:10;;;;;;;5.97;4.00;;;;;;;31.70;41.73;98746.22;6185192;23;20630;-91
2022/07/25 06:15:38;;;;;;;6.30;3.33;;;;;;;31.63;41.30;98750.06;6185540;23;20158;-90
2022/07/25 06:18:06;;;;;;;6.75;4.43;;;;;;;31.79;41.19;98758.41;6185195;23;20238;-91
2022/07/25 06:20:32;;;;;;;8.23;4.68;;;;;;;32.04;41.17;98763.78;6184693;23;20155;-91
2022/07/25 06:22:57;;;;;;;7.65;4.40;;;;;;;32.06;41.72;98738.09;6160213;23;20479;-91
2022/07/25 06:25:23;;;;;;;7.95;4.22;;;;;;;32.33;41.01;98748.59;6185738;23;20175;-90
2022/07/25 06:27:49;;;;;;;8.25;4.85;;;;;;;32.45;40.69;98752.19;6185036;23;20158;-92
2022/07/25 06:30:16;;;;;;;7.93;4.35;;;;;;;32.45;39.77;98752.19;6184841;23;20161;-91
2022/07/25 06:32:42;;;;;;;10.65;4.75;;;;;;;32.37;42.21;98750.63;6160239;23;20217;-90
2022/07/25 06:35:08;;;;;;;11.65;5.25;;;;;;;32.66;41.17;98743.56;6185786;23;20155;-90
2022/07/25 06:37:53;;;;;;;8.80;5.03;;;;;;;32.53;38.10;98736.44;6183746;23;20201;-93
2022/07/25 06:40:19;;;;;;;7.35;4.78;;;;;;;32.22;40.60;98745.63;6185247;23;20150;-91
2022/07/25 06:42:54;;;;;;;8.02;4.95;;;;;;;32.34;40.20;98744.84;6185762;23;20150;-92
2022/07/25 06:45:20;;;;;;;9.40;5.03;;;;;;;32.61;39.83;98751.56;6184977;23;20260;-92
2022/07/25 06:47:46;;;;;;;9.23;4.43;;;;;;;32.67;40.38;98746.06;6184858;23;20197;-91
2022/07/25 06:50:17;;;;;;;6.78;4.63;;;;;;;32.89;40.04;98748.25;6186279;23;20146;-92
2022/07/25 06:53:12;;;;;;;6.35;4.30;;;;;;;32.94;38.89;98742.94;6160023;23;20147;-91
2022/07/25 06:56:10;;;;;;;7.68;4.75;;;;;;;33.16;38.84;98746.78;6160056;23;20162;-90
2022/07/25 06:58:45;;;;;;;7.50;5.03;;;;;;;33.40;38.10;98741.13;6186037;23;20135;-91
2022/07/25 07:01:38;;;;;;;;;;;;;;;;;;;;;
2022/07/25 07:04:04;;;;;;;6.55;4.47;;;;;;;33.70;37.54;98743.72;6186034;23;20253;-90
2022/07/25 07:06:38;;;;;;;7.45;5.22;;;;;;;33.63;37.69;98745.75;6183514;23;20523;-91
2022/07/25 07:15:02;;;;;;;7.32;4.30;;;;;;;34.07;36.44;98752.44;6185493;23;20470;-90
2022/07/25 07:17:53;;;;;;;7.18;4.93;;;;;;;34.18;37.16;98745.31;6184078;23;20154;-91
2022/07/25 07:20:18;;;;;;;7.18;4.20;;;;;;;34.30;36.61;98744.22;6184455;23;20596;-90
2022/07/25 07:23:30;;;;;;;7.20;4.72;;;;;;;34.20;35.70;98746.72;6185787;23;20147;-90
2022/07/25 07:26:36;;;;;;;6.97;4.75;;;;;;;34.47;36.01;98742.34;6013638;23;20184;-91
2022/07/25 07:29:24;;;;;;;5.95;4.53;;;;;;;34.75;35.10;98751.63;6011933;23;20166;-90
2022/07/25 07:32:16;;;;;;;6.05;4.25;;;;;;;35.04;34.82;98754.03;6186124;23;20138;-92
2022/07/25 07:34:44;;;;;;;6.82;4.47;;;;;;;34.94;34.13;98751.13;6185464;23;20581;-91
2022/07/25 07:44:17;;;;;;;5.97;3.80;;;;;;;35.41;34.34;98765.28;5980905;24;20198;-89
2022/07/25 07:47:08;;;;;;;6.72;4.25;;;;;;;35.73;33.49;98757.34;5983451;23;20166;-92
2022/07/25 07:50:26;;;;;;;7.95;4.68;;;;;;;35.81;33.89;98758.81;6088294;23;20159;-90
2022/07/25 07:55:42;;;;;;;9.57;4.80;;;;;;;35.70;33.39;98764.13;6178567;23;20162;-90
2022/07/25 07:56:01;;;;;;;7.05;4.32;;;;;;;35.81;33.57;98758.81;6184093;23;20231;-91
2022/07/25 07:58:28;;;;;;;7.47;4.32;;;;;;;35.77;33.58;98753.84;6183969;23;20225;-89
2022/07/25 08:00:54;;;;;;;8.43;3.97;;;;;;;35.99;32.71;98761.22;6185270;23;20229;-90
2022/07/25 08:03:43;;;;;;;10.65;4.40;;;;;;;36.09;33.20;98761.38;6183724;23;20521;-90
2022/07/25 08:06:08;;;;;;;7.45;4.55;;;;;;;36.21;32.59;98762.09;6183601;23;20189;-91
2022/07/25 08:08:34;;;;;;;6.40;4.10;;;;;;;36.20;32.90;98769.44;6185785;23;20142;-89
2022/07/25 08:11:27;;;;;;;8.55;5.15;;;;;;;36.33;32.32;98758.13;6184304;23;20205;-89
2022/07/25 08:13:56;;;;;;;7.22;4.95;;;;;;;36.36;31.40;98774.03;6183722;23;20161;-91
2022/07/25 08:16:58;;;;;;;8.02;4.95;;;;;;;36.37;32.76;98777.56;6184325;23;20158;-90
2022/07/25 08:23:34;;;;;;;;;;;;;;;;;;;;;
2022/07/25 08:30:18;;;;;;;6.47;4.22;;;;;;;36.24;33.29;98775.22;6043156;23;20145;-90
2022/07/25 08:34:12;;;;;;;6.30;4.82;;;;;;;36.66;32.17;98770.00;6094447;23;20156;-90
2022/07/25 08:44:20;;;;;;;6.75;4.20;;;;;;;36.62;31.66;98772.41;5977930;23;20253;-92
2022/07/25 08:47:57;;;;;;;;;;;;;;;;;;;;;
2022/07/25 08:51:59;;;;;;;;;;;;;;;;;;;;;
2022/07/25 09:03:06;;;;;;;;;;;;;;;;;;;;;
2022/07/25 09:13:39;;;;;;;;;;;;;;;;;;;;;
2022/07/25 09:23:59;;;;;;;;;;;;;;;;;;;;;
2022/07/25 09:48:33;;;;;;;14.55;4.95;;;;;;;38.06;29.71;98762.13;5792774;24;20224;-92
2022/07/25 10:26:25;;;;;;;5.60;4.05;;;;;;;38.08;29.22;98721.59;5792848;24;20179;-94
2022/07/25 10:39:56;;;;;;;8.23;4.35;;;;;;;38.42;29.46;98710.25;5765431;24;20160;-94
2022/07/25 13:58:39;;;;;;;6.57;3.20;;;;;;;39.47;25.75;98536.63;5816411;24;20301;-91
2022/07/25 15:30:43;;;;;;;;;;;;;;;;;;;;;
2022/07/25 15:33:36;;;;;;;5.90;2.70;;;;;;;37.98;26.38;98491.66;5905246;24;20247;-93
2022/07/25 15:47:44;;;;;;;;;;;;;;;;;;;;;
2022/07/25 17:33:59;;;;;;;8.88;3.78;;;;;;;34.25;35.08;98529.13;5997385;23;20259;-96
2022/07/25 17:44:58;;;;;;;5.28;3.25;;;;;;;34.21;35.17;98546.19;5845681;24;20201;-94
2022/07/25 18:49:13;;;;;;;10.18;4.32;;;;;;;32.62;36.94;98603.97;5714671;25;20173;-96
2022/07/25 18:55:11;;;;;;;8.38;4.35;;;;;;;32.47;37.67;98604.38;5690104;25;20296;-95
2022/07/25 19:01:10;;;;;;;5.78;3.45;;;;;;;32.53;36.99;98613.50;5613889;25;20172;-95
2022/07/25 19:11:52;;;;;;;;;;;;;;;;;;;;;
2022/07/25 19:14:29;;;;;;;5.68;2.85;;;;;;;32.23;38.03;98618.97;5639023;25;20313;-95
2022/07/25 19:24:56;;;;;;;5.45;3.00;;;;;;;32.20;38.12;98625.69;5717113;24;20172;-96
2022/07/25 19:35:52;;;;;;;;;;;;;;;;;;;;;
2022/07/25 19:38:49;;;;;;;;;;;;;;;;;;;;;
2022/07/25 20:00:31;;;;;;;;;;;;;;;;;;;;;
2022/07/25 20:02:58;;;;;;;5.22;2.80;;;;;;;31.83;40.02;98670.16;5665247;25;20258;-95
2022/07/25 20:13:05;;;;;;;6.38;2.97;;;;;;;31.74;40.43;98670.69;5568007;25;20217;-96
2022/07/25 20:19:42;;;;;;;;;;;;;;;;;;;;;
2022/07/25 20:26:13;;;;;;;;;;;;;;;;;;;;;
2022/07/25 20:29:39;;;;;;;;;;;;;;;;;;;;;
2022/07/25 20:51:15;;;;;;;5.07;3.00;;;;;;;31.14;42.17;98680.47;5674823;25;20206;-94
2022/07/25 20:58:36;;;;;;;;;;;;;;;;;;;;;
2022/07/25 21:01:59;;;;;;;3.95;2.85;;;;;;;30.76;43.39;98675.16;5637583;25;20286;-95
2022/07/25 21:09:08;;;;;;;8.13;2.90;;;;;;;30.68;43.18;98687.09;5658100;25;20183;-94
2022/07/25 21:15:07;;;;;;;5.38;3.00;;;;;;;30.49;43.76;98693.47;5934144;24;20275;-95
2022/07/25 21:17:36;;;;;;;7.53;3.90;;;;;;;30.46;43.66;98685.78;5957398;24;20234;-93
2022/07/25 21:20:06;;;;;;;8.48;3.17;;;;;;;30.36;44.07;98688.97;5959058;24;20500;-94
2022/07/25 21:22:40;;;;;;;7.75;2.70;;;;;;;30.25;44.26;98696.91;5959055;24;20171;-94
2022/07/25 21:25:52;;;;;;;;;;;;;;;;;;;;;
2022/07/25 21:28:55;;;;;;;;;;;;;;;;;;;;;
2022/07/25 21:31:22;;;;;;;5.68;2.72;;;;;;;30.24;44.48;98697.97;6098085;23;20663;-94
2022/07/25 21:33:58;;;;;;;8.40;3.20;;;;;;;30.27;44.29;98706.47;6097308;23;20164;-95
2022/07/25 21:36:36;;;;;;;7.28;3.25;;;;;;;30.20;44.60;98697.56;6073244;23;20159;-94
2022/07/25 21:39:49;;;;;;;;;;;;;;;;;;;;;
2022/07/25 21:42:15;;;;;;;6.35;3.38;;;;;;;30.22;44.62;98711.69;6094866;23;20244;-94
2022/07/25 21:44:44;;;;;;;4.32;2.65;;;;;;;30.15;44.84;98702.81;6072950;23;20203;-94
2022/07/25 21:47:15;;;;;;;5.47;3.05;;;;;;;30.17;44.72;98716.09;6073293;23;20164;-95
2022/07/25 21:52:33;;;;;;;5.43;3.25;;;;;;;30.17;44.72;98716.94;6098239;23;20501;-95
2022/07/25 21:55:00;;;;;;;5.22;3.17;;;;;;;30.16;44.97;98717.16;6096966;23;20628;-94
2022/07/25 21:57:31;;;;;;;4.57;2.65;;;;;;;30.13;45.30;98718.41;6073417;23;20156;-94
2022/07/25 21:59:56;;;;;;;5.28;3.00;;;;;;;30.06;45.41;98723.00;6074260;23;20316;-94
2022/07/25 22:02:22;;;;;;;5.65;3.22;;;;;;;30.04;45.68;98718.84;6072666;23;20585;-95
2022/07/25 22:04:52;;;;;;;7.72;2.85;;;;;;;29.99;45.63;98722.22;6097401;23;20181;-95
2022/07/25 22:07:27;;;;;;;12.57;3.25;;;;;;;30.01;45.54;98720.13;6072932;23;20148;-94
2022/07/25 22:09:53;;;;;;;5.10;2.67;;;;;;;29.95;45.74;98715.59;6074055;23;20144;-94
2022/07/25 22:12:21;;;;;;;5.05;2.60;;;;;;;29.97;45.94;98715.34;6073660;23;20493;-95
2022/07/25 22:14:49;;;;;;;4.22;2.60;;;;;;;29.92;46.54;98717.88;6072714;23;20159;-94
2022/07/25 22:17:17;;;;;;;5.32;2.88;;;;;;;29.87;46.91;98723.09;6072617;23;20163;-94
2022/07/25 22:22:34;;;;;;;8.15;3.35;;;;;;;29.76;46.52;98720.00;6083146;23;20564;-95
2022/07/25 22:25:25;;;;;;;6.45;3.85;;;;;;;29.76;46.05;98720.00;6073042;23;20176;-94
2022/07/25 22:28:30;;;;;;;;;;;;;;;;;;;;;
2022/07/25 22:30:56;;;;;;;5.70;3.00;;;;;;;29.64;45.98;98720.84;6093178;23;20252;-94
2022/07/25 22:33:22;;;;;;;5.47;2.97;;;;;;;29.55;46.67;98719.41;6072591;23;20184;-93
2022/07/25 22:35:51;;;;;;;4.70;2.83;;;;;;;29.51;46.29;98719.00;6072826;23;20156;-93
2022/07/25 22:38:18;;;;;;;4.88;3.00;;;;;;;29.36;47.01;98718.41;6073107;23;20156;-94
2022/07/25 22:40:49;;;;;;;5.20;3.13;;;;;;;29.26;47.48;98709.91;6096501;23;20604;-95
2022/07/25 22:43:20;;;;;;;4.68;2.92;;;;;;;29.13;47.66;98718.00;6097447;23;20199;-94
2022/07/25 22:45:55;;;;;;;4.43;2.63;;;;;;;29.07;47.76;98721.53;6073569;23;20180;-95
2022/07/25 22:48:28;;;;;;;5.53;3.65;;;;;;;29.01;48.47;98716.97;6073229;23;20148;-94
2022/07/25 22:50:54;;;;;;;5.40;3.22;;;;;;;29.12;47.83;98729.81;6096718;23;20220;-93
2022/07/25 22:53:23;;;;;;;4.57;2.85;;;;;;;29.20;47.60;98719.69;6072594;23;20189;-93
2022/07/25 22:55:52;;;;;;;6.07;3.42;;;;;;;29.20;46.81;98718.81;6072882;23;20164;-94
2022/07/25 22:58:24;;;;;;;5.70;3.03;;;;;;;29.22;47.22;98708.66;6074908;23;20163;-94
2022/07/25 23:00:50;;;;;;;5.00;3.13;;;;;;;29.12;47.47;98711.75;6074545;23;20149;-93
2022/07/25 23:03:15;;;;;;;5.80;3.78;;;;;;;29.05;48.04;98702.84;6074757;23;20160;-93
2022/07/25 23:05:41;;;;;;;5.03;2.95;;;;;;;29.03;48.05;98701.41;6099857;23;20192;-93
2022/07/25 23:08:07;;;;;;;5.38;3.35;;;;;;;28.98;47.95;98701.19;6074544;23;20164;-94
2022/07/25 23:10:32;;;;;;;5.65;3.58;;;;;;;28.93;48.58;98701.78;6074471;23;20168;-94
2022/07/25 23:13:00;;;;;;;5.82;3.17;;;;;;;28.92;48.25;98702.84;6098665;23;20160;-94
2022/07/25 23:15:25;;;;;;;5.25;2.95;;;;;;;28.92;48.08;98694.75;6098583;23;20584;-93
2022/07/25 23:17:51;;;;;;;4.50;2.90;;;;;;;28.96;47.90;98697.84;6074270;23;20156;-94
2022/07/25 23:20:17;;;;;;;6.05;3.70;;;;;;;28.85;49.00;98696.59;6074368;23;20160;-94
2022/07/25 23:22:45;;;;;;;4.93;3.17;;;;;;;28.78;49.18;98695.78;6074439;23;20219;-94
2022/07/25 23:25:11;;;;;;;5.85;3.05;;;;;;;28.66;50.07;98696.63;6074346;23;20286;-94
2022/07/25 23:27:37;;;;;;;8.10;3.30;;;;;;;28.58;49.93;98692.22;6096886;23;20608;-96
2022/07/25 23:30:07;;;;;;;7.10;3.42;;;;;;;28.58;50.05;98684.97;6127925;23;20183;-96
2022/07/25 23:32:32;;;;;;;5.68;3.33;;;;;;;28.53;49.73;98690.16;6128935;23;20159;-95
2022/07/25 23:34:58;;;;;;;6.25;3.00;;;;;;;28.46;49.93;98691.16;6127838;23;20559;-96
2022/07/25 23:37:27;;;;;;;6.68;3.42;;;;;;;28.43;50.63;98686.19;6127408;23;20218;-96
2022/07/25 23:39:52;;;;;;;6.72;2.97;;;;;;;28.35;50.96;98684.53;6127611;23;20224;-93
2022/07/25 23:42:18;;;;;;;8.90;3.65;;;;;;;28.30;50.61;98686.97;6127442;23;20156;-94
2022/07/25 23:44:43;;;;;;;7.20;3.92;;;;;;;28.29;51.03;98679.94;6127944;23;20176;-94
2022/07/25 23:47:11;;;;;;;5.65;3.17;;;;;;;28.26;50.80;98685.72;6127801;23;20195;-94
2022/07/25 23:49:37;;;;;;;5.13;3.28;;;;;;;28.25;50.86;98678.66;6127371;23;20160;-93
2022/07/25 23:52:05;;;;;;;5.68;3.10;;;;;;;28.25;50.87;98678.66;6127355;23;20160;-95